Sioux Falls, SD (57101)

7:25 AM CST on December 04, 2016 (GMT -0600)
Leaders | | Change Station

Elev 1355 ft 43.56 °N, 96.69 °W | Updated 8 seconds ago

Overcast
Overcast
31.2 °F
Feels Like 31 °F
N
2.0
Wind Variable Wind from SSE

Today
High -- | Low -- °F
--% Chance of Precip.
Yesterday
High -- | Low -- °F
Precip. -- in
Pressure 29.92 in
Visibility 5.0 miles
Clouds Overcast 400 ft
Windchill 31 °F
Dew Point 31 °F
Humidity 98%
Rainfall 0.00 in
Snow Depth Not available.
7:43 AM 4:50 PM
Waxing Crescent, 22% visible
METAR KFSD 041256Z 23005KT 5SM BR OVC004 00/00 A2987 RMK AO2 SLP132 T00000000
Pressure 29.92 in
Visibility 5.0 miles
Clouds Overcast 400 ft
Windchill 31 °F
Dew Point 31 °F
Humidity 98%
Rainfall 0.00 in
Snow Depth Not available.
7:43 AM 4:50 PM
Waxing Crescent, 22% visible
METAR KFSD 041256Z 23005KT 5SM BR OVC004 00/00 A2987 RMK AO2 SLP132 T00000000

10-Day Weather Forecast

Almanac

Astronomy

Dec. 04, 2016 Rise Set
Actual Time
Civil Twilight
Nautical Twilight
Astronomical Twilight
Moon
Length of Visible Light
Length of Day
Tomorrow will be .
, % of the Moon is Illuminated

Today's Extremes

State Highs State Lows

Community

WunderPhotos

Upload Photos

1,955,593 photos uploaded!

WunderBlog® & News

Nearby

Air Quality

  Air Quality AQ Index Pollutant
Not available.

Snow Depth

Station Depth Elevation

Earthquake Activity

City Distance Mag. Time & Date
Minimum magnitude displayed is 2.5.

Coastal Water Temperatures

Place Temperature

Stations

Nearby Weather Stations

Station Location Temp. Windchill Dew Point Humidity Wind Precip. Elev Updated Type
                   

Watches & Warnings

There are currently no watches in effect.